createdAt,value
2022-12-25T00:01:38.986Z,101553.81
2022-12-25T00:04:05.624Z,101562.34
2022-12-25T00:06:32.065Z,101558.88
2022-12-25T00:08:58.496Z,101564.84
2022-12-25T00:11:24.949Z,101555.31
2022-12-25T00:13:51.392Z,101547.47
2022-12-25T00:16:27.191Z,101556.00
2022-12-25T00:18:55.710Z,101552.50
2022-12-25T00:21:22.558Z,101547.22
2022-12-25T00:23:57.650Z,101548.91
2022-12-25T00:26:25.298Z,101552.25
2022-12-25T00:28:56.921Z,101554.69
2022-12-25T00:31:25.056Z,101550.34
2022-12-25T00:33:52.826Z,101545.16
2022-12-25T00:36:21.759Z,101544.22
2022-12-25T00:38:48.451Z,101549.34
2022-12-25T00:41:18.044Z,101553.53
2022-12-25T00:43:44.673Z,101544.94
2022-12-25T00:46:13.096Z,101543.16
2022-12-25T00:48:40.606Z,101557.72
2022-12-25T00:51:11.391Z,101558.56
2022-12-25T00:53:37.961Z,101554.13
2022-12-25T00:56:06.181Z,101558.47
2022-12-25T00:58:34.857Z,101555.81
2022-12-25T01:01:02.726Z,101557.53
2022-12-25T01:03:29.258Z,101566.09
2022-12-25T01:05:58.658Z,101559.16
2022-12-25T01:08:26.332Z,101558.28
2022-12-25T01:11:09.297Z,101557.38
2022-12-25T01:13:37.258Z,101559.91
2022-12-25T01:16:10.786Z,101569.31
2022-12-25T01:18:38.378Z,101567.59
2022-12-25T01:21:08.850Z,101565.81
2022-12-25T01:23:35.549Z,101570.09
2022-12-25T01:26:06.648Z,101573.59
2022-12-25T01:28:33.358Z,101563.22
2022-12-25T01:30:59.762Z,101571.75
2022-12-25T01:33:26.840Z,101576.06
2022-12-25T01:35:53.298Z,101583.81
2022-12-25T01:38:19.756Z,101578.63
2022-12-25T01:40:46.291Z,101574.28
2022-12-25T01:43:33.655Z,101571.63
2022-12-25T01:46:00.444Z,101563.06
2022-12-25T01:48:39.234Z,101563.91
2022-12-25T01:51:22.216Z,101566.50
2022-12-25T01:53:48.713Z,101557.03
2022-12-25T01:56:15.182Z,101565.69
2022-12-25T01:58:41.818Z,101573.53
2022-12-25T02:01:08.505Z,101582.19
2022-12-25T02:03:35.005Z,101576.16
2022-12-25T02:06:03.624Z,101577.88
2022-12-25T02:08:30.916Z,101579.69
2022-12-25T02:10:57.347Z,101571.91
2022-12-25T02:13:23.821Z,101567.66
2022-12-25T02:16:13.681Z,101567.75
2022-12-25T02:18:43.738Z,101567.91
2022-12-25T02:21:19.142Z,101568.84
2022-12-25T02:23:57.514Z,101573.16
2022-12-25T02:26:30.035Z,101569.81
2022-12-25T02:29:17.464Z,101566.41
2022-12-25T02:31:53.914Z,101559.56
2022-12-25T02:34:44.116Z,101563.06
2022-12-25T02:37:24.189Z,101562.25
2022-12-25T02:39:58.737Z,101568.16
2022-12-25T02:42:54.829Z,101565.50
2022-12-25T02:46:02.805Z,101566.41
2022-12-25T02:48:52.234Z,101557.72
2022-12-25T02:51:42.094Z,101558.69
2022-12-25T02:54:32.012Z,101550.94
2022-12-25T02:57:21.398Z,101556.94
2022-12-25T03:00:09.637Z,101545.66
2022-12-25T03:02:56.515Z,101545.66
2022-12-25T03:05:45.431Z,101540.31
2022-12-25T03:08:16.648Z,101524.69
2022-12-25T03:11:05.190Z,101511.66
2022-12-25T03:13:38.968Z,101503.88
2022-12-25T03:16:25.453Z,101498.78
2022-12-25T03:18:55.463Z,101503.06
2022-12-25T03:21:40.747Z,101496.94
2022-12-25T03:24:25.726Z,101493.34
2022-12-25T03:26:55.336Z,101495.81
2022-12-25T03:29:45.548Z,101490.53
2022-12-25T03:32:27.118Z,101502.50
2022-12-25T03:35:23.828Z,101500.69
2022-12-25T03:38:31.112Z,101499.69
2022-12-25T03:41:33.324Z,101496.19
2022-12-25T03:44:27.083Z,101505.59
2022-12-25T03:47:35.175Z,101502.03
2022-12-25T03:50:23.452Z,101508.94
2022-12-25T03:53:11.374Z,101512.25
2022-12-25T03:55:59.216Z,101506.09
2022-12-25T03:58:45.712Z,101504.34
2022-12-25T04:01:31.927Z,101508.66
2022-12-25T04:04:17.107Z,101501.72
2022-12-25T04:07:02.685Z,101490.53
2022-12-25T04:09:47.521Z,101489.69
2022-12-25T04:12:32.559Z,101489.72
2022-12-25T04:15:17.352Z,101479.53
2022-12-25T04:18:02.217Z,101482.22
2022-12-25T04:20:47.210Z,101490.13
2022-12-25T04:23:31.938Z,101491.00
2022-12-25T04:26:19.126Z,101498.00
2022-12-25T04:29:03.950Z,101493.69
2022-12-25T04:31:48.805Z,101504.94
2022-12-25T04:34:34.089Z,101510.19
2022-12-25T04:37:00.529Z,101505.03
2022-12-25T04:39:26.948Z,101497.38
2022-12-25T04:41:53.427Z,101498.19
2022-12-25T04:44:19.829Z,101495.69
2022-12-25T04:46:46.355Z,101505.28
2022-12-25T04:49:12.844Z,101502.72
2022-12-25T04:51:39.318Z,101499.28
2022-12-25T04:54:05.702Z,101494.16
2022-12-25T04:56:33.357Z,101489.84
2022-12-25T04:58:59.982Z,101500.28
2022-12-25T05:01:26.447Z,101491.69
2022-12-25T05:03:52.981Z,101486.59
2022-12-25T05:06:20.069Z,101475.41
2022-12-25T05:08:46.530Z,101472.88
2022-12-25T05:11:15.640Z,101479.78
2022-12-25T05:13:42.359Z,101482.41
2022-12-25T05:16:14.725Z,101482.47
2022-12-25T05:18:41.318Z,101464.38
2022-12-25T05:21:08.099Z,101464.44
2022-12-25T05:23:34.624Z,101461.78
2022-12-25T05:26:07.937Z,101460.94
2022-12-25T05:28:35.782Z,101458.34
2022-12-25T05:31:02.353Z,101453.16
2022-12-25T05:33:28.899Z,101451.47
2022-12-25T05:35:55.298Z,101444.59
2022-12-25T05:38:21.729Z,101443.69
2022-12-25T05:40:51.287Z,101449.78
2022-12-25T05:43:19.390Z,101438.56
2022-12-25T05:45:45.801Z,101435.97
2022-12-25T05:48:12.306Z,101436.84
2022-12-25T05:50:38.988Z,101436.84
2022-12-25T05:53:08.585Z,101447.13
2022-12-25T05:55:39.950Z,101441.06
2022-12-25T05:58:08.334Z,101446.22
2022-12-25T06:00:35.448Z,101446.19
2022-12-25T06:03:02.119Z,101449.63
2022-12-25T06:05:28.681Z,101447.88
2022-12-25T06:07:55.117Z,101441.78
2022-12-25T06:10:21.752Z,101440.03
2022-12-25T06:12:48.408Z,101437.38
2022-12-25T06:15:15.063Z,101422.69
2022-12-25T06:17:41.712Z,101419.13
2022-12-25T06:20:08.760Z,101419.13
2022-12-25T06:22:35.505Z,101412.25
2022-12-25T06:25:02.085Z,101416.50
2022-12-25T06:27:28.621Z,101413.06
2022-12-25T06:29:55.386Z,101421.63
2022-12-25T06:32:21.830Z,101424.09
2022-12-25T06:34:48.876Z,101418.84
2022-12-25T06:37:15.470Z,101420.50
2022-12-25T06:39:41.893Z,101421.25
2022-12-25T06:42:08.352Z,101420.31
2022-12-25T06:44:34.801Z,101406.44
2022-12-25T06:47:01.259Z,101402.06
2022-12-25T06:49:27.699Z,101397.66
2022-12-25T06:51:54.151Z,101402.75
2022-12-25T06:54:20.896Z,101405.31
2022-12-25T06:56:47.806Z,101407.00
2022-12-25T06:59:14.549Z,101396.56
2022-12-25T07:01:55.575Z,101399.13
2022-12-25T07:04:35.715Z,101390.41
2022-12-25T07:07:08.338Z,101384.25
2022-12-25T07:09:35.692Z,101379.91
2022-12-25T07:12:16.342Z,101384.97
2022-12-25T07:14:43.353Z,101391.91
2022-12-25T07:17:09.744Z,101392.72
2022-12-25T07:19:42.704Z,101394.41
2022-12-25T07:22:10.977Z,101397.00
2022-12-25T07:24:37.377Z,101402.19
2022-12-25T07:27:03.881Z,101411.63
2022-12-25T07:29:30.311Z,101410.72
2022-12-25T07:31:57.117Z,101403.78
2022-12-25T07:34:23.974Z,101412.44
2022-12-25T07:36:50.529Z,101408.09
2022-12-25T07:39:17.664Z,101405.41
2022-12-25T07:41:44.710Z,101404.50
2022-12-25T07:44:11.172Z,101405.38
2022-12-25T07:46:37.606Z,101411.41
2022-12-25T07:49:04.068Z,101412.25
2022-12-25T07:51:30.552Z,101423.44
2022-12-25T07:53:57.329Z,101424.28
2022-12-25T07:56:23.970Z,101422.53
2022-12-25T07:58:50.484Z,101415.66
2022-12-25T08:01:26.759Z,101415.59
2022-12-25T08:03:55.931Z,101416.44
2022-12-25T08:06:26.779Z,101421.63
2022-12-25T08:08:53.248Z,101429.38
2022-12-25T08:11:19.748Z,101421.59
2022-12-25T08:13:46.227Z,101432.81
2022-12-25T08:16:12.661Z,101434.56
2022-12-25T08:18:40.225Z,101450.06
2022-12-25T08:21:12.327Z,101444.88
2022-12-25T08:23:41.273Z,101450.03
2022-12-25T08:26:08.882Z,101454.31
2022-12-25T08:28:36.061Z,101449.97
2022-12-25T08:31:07.581Z,101447.28
2022-12-25T08:33:34.247Z,101445.56
2022-12-25T08:36:06.524Z,101441.22
2022-12-25T08:38:33.425Z,101442.91
2022-12-25T08:40:59.901Z,101440.31
2022-12-25T08:43:26.595Z,101437.72
2022-12-25T08:45:53.379Z,101424.69
2022-12-25T08:48:20.544Z,101417.81
2022-12-25T08:50:48.908Z,101410.00
2022-12-25T08:53:15.864Z,101410.00
2022-12-25T08:55:44.705Z,101403.91
2022-12-25T08:58:12.061Z,101410.75
2022-12-25T09:00:40.932Z,101417.59
2022-12-25T09:03:07.745Z,101408.91
2022-12-25T09:05:35.914Z,101413.25
2022-12-25T09:08:02.714Z,101414.91
2022-12-25T09:10:29.833Z,101410.56
2022-12-25T09:12:57.017Z,101409.66
2022-12-25T09:15:23.781Z,101406.19
2022-12-25T09:17:50.464Z,101413.00
2022-12-25T09:20:17.106Z,101425.09
2022-12-25T09:22:44.098Z,101423.34
2022-12-25T09:25:12.205Z,101426.75
2022-12-25T09:27:39.283Z,101415.44
2022-12-25T09:30:07.243Z,101427.50
2022-12-25T09:32:33.949Z,101425.75
2022-12-25T09:35:00.446Z,101432.69
2022-12-25T09:37:27.863Z,101439.53
2022-12-25T09:39:54.404Z,101439.47
2022-12-25T09:42:25.173Z,101447.22
2022-12-25T09:45:04.555Z,101435.91
2022-12-25T09:47:38.374Z,101416.06
2022-12-25T09:50:23.699Z,101419.44
2022-12-25T09:52:57.595Z,101412.56
2022-12-25T09:55:28.842Z,101406.44
2022-12-25T09:58:01.199Z,101411.53
2022-12-25T10:00:38.125Z,101417.53
2022-12-25T10:03:32.937Z,101405.47
2022-12-25T10:06:05.547Z,101391.59
2022-12-25T10:08:59.394Z,101393.34
2022-12-25T10:12:11.760Z,101409.75
2022-12-25T10:14:57.054Z,101408.00
2022-12-25T10:17:32.363Z,101401.91
2022-12-25T10:20:34.542Z,101394.19
2022-12-25T10:23:03.890Z,101389.00
2022-12-25T10:25:31.721Z,101394.97
2022-12-25T10:28:09.881Z,101389.78
2022-12-25T10:30:36.842Z,101390.63
2022-12-25T10:33:03.565Z,101388.88
2022-12-25T10:35:31.698Z,101384.53
2022-12-25T10:38:11.627Z,101385.44
2022-12-25T10:40:51.786Z,101375.00
2022-12-25T10:43:23.991Z,101365.41
2022-12-25T10:45:50.548Z,101373.13
2022-12-25T10:48:26.463Z,101353.19
2022-12-25T10:50:53.056Z,101357.56
2022-12-25T10:53:27.566Z,101361.00
2022-12-25T10:56:01.595Z,101344.53
2022-12-25T10:58:29.154Z,101338.50
2022-12-25T11:00:59.951Z,101334.91
2022-12-25T11:03:32.740Z,101326.28
2022-12-25T11:06:02.913Z,101321.91
2022-12-25T11:08:31.468Z,101318.34
2022-12-25T11:11:06.376Z,101308.84
2022-12-25T11:13:50.689Z,101302.72
2022-12-25T11:16:38.562Z,101309.56
2022-12-25T11:19:24.051Z,101306.06
2022-12-25T11:21:52.861Z,101293.06
2022-12-25T11:24:26.004Z,101293.06
2022-12-25T11:26:55.565Z,101278.28
2022-12-25T11:29:42.296Z,101279.16
2022-12-25T11:32:19.303Z,101285.16
2022-12-25T11:34:47.823Z,101264.41
2022-12-25T11:37:48.852Z,101246.94
2022-12-25T11:40:22.684Z,101251.16
2022-12-25T11:43:07.585Z,101244.94
2022-12-25T11:45:45.364Z,101227.56
2022-12-25T11:48:17.996Z,101223.94
2022-12-25T11:50:55.112Z,101234.13
2022-12-25T11:53:39.664Z,101227.13
2022-12-25T11:56:10.274Z,101228.81
2022-12-25T11:58:44.661Z,101234.06
2022-12-25T12:01:37.219Z,101240.03
2022-12-25T12:04:14.056Z,101243.47
2022-12-25T12:06:50.974Z,101240.09
2022-12-25T12:09:35.104Z,101239.28
2022-12-25T12:12:09.573Z,101237.56
2022-12-25T12:14:48.501Z,101253.13
2022-12-25T12:17:18.684Z,101246.19
2022-12-25T12:19:45.521Z,101234.97
2022-12-25T12:22:20.232Z,101226.31
2022-12-25T12:25:14.999Z,101223.59
2022-12-25T12:27:42.108Z,101222.78
2022-12-25T12:30:24.114Z,101214.91
2022-12-25T12:32:53.971Z,101207.97
2022-12-25T12:35:33.673Z,101212.38
2022-12-25T12:38:07.646Z,101212.38
2022-12-25T12:40:41.531Z,101199.44
2022-12-25T12:43:44.063Z,101190.81
2022-12-25T12:46:26.086Z,101191.72
2022-12-25T12:49:20.022Z,101193.41
2022-12-25T12:51:46.575Z,101209.91
2022-12-25T12:54:24.525Z,101197.00
2022-12-25T12:57:04.786Z,101195.25
2022-12-25T12:59:40.053Z,101203.88
2022-12-25T13:02:24.606Z,101200.44
2022-12-25T13:05:19.072Z,101188.28
2022-12-25T13:08:07.122Z,101193.47
2022-12-25T13:10:37.520Z,101176.13
2022-12-25T13:13:18.415Z,101170.03
2022-12-25T13:15:47.461Z,101170.94
2022-12-25T13:18:14.884Z,101159.72
2022-12-25T13:21:04.948Z,101153.69
2022-12-25T13:23:36.769Z,101151.09
2022-12-25T13:26:13.880Z,101151.91
2022-12-25T13:28:40.446Z,101153.59
2022-12-25T13:31:12.777Z,101150.97
2022-12-25T13:33:41.664Z,101149.25
2022-12-25T13:36:13.804Z,101144.88
2022-12-25T13:38:49.463Z,101133.66
2022-12-25T13:41:38.113Z,101138.84
2022-12-25T13:44:16.067Z,101133.66
2022-12-25T13:46:42.694Z,101125.88
2022-12-25T13:49:14.950Z,101130.22
2022-12-25T13:51:51.560Z,101133.66
2022-12-25T13:54:23.786Z,101142.28
2022-12-25T13:56:56.543Z,101144.06
2022-12-25T13:59:30.626Z,101132.78
2022-12-25T14:01:58.040Z,101128.53
2022-12-25T14:04:30.792Z,101125.94
2022-12-25T14:07:12.446Z,101128.59
2022-12-25T14:09:40.756Z,101125.94
2022-12-25T14:12:11.757Z,101119.97
2022-12-25T14:14:43.329Z,101112.19
2022-12-25T14:17:11.863Z,101125.94
2022-12-25T14:19:38.596Z,101125.94
2022-12-25T14:22:11.753Z,101125.88
2022-12-25T14:24:39.732Z,101133.75
2022-12-25T14:27:17.829Z,101135.50
2022-12-25T14:29:47.248Z,101132.91
2022-12-25T14:32:23.990Z,101115.56
2022-12-25T14:34:57.220Z,101119.00
2022-12-25T14:37:31.045Z,101122.50
2022-12-25T14:40:05.037Z,101117.38
2022-12-25T14:42:35.050Z,101114.72
2022-12-25T14:45:06.565Z,101107.78
2022-12-25T14:47:52.575Z,101110.28
2022-12-25T14:50:39.375Z,101099.97
2022-12-25T14:53:18.117Z,101097.38
2022-12-25T14:55:50.091Z,101099.13
2022-12-25T14:58:22.169Z,101111.22
2022-12-25T15:01:02.958Z,101109.44
2022-12-25T15:03:32.469Z,101093.09
2022-12-25T15:06:21.059Z,101110.28
2022-12-25T15:08:58.883Z,101113.81
2022-12-25T15:11:25.747Z,101109.44
2022-12-25T15:13:52.252Z,101113.81
2022-12-25T15:16:56.789Z,101106.84
2022-12-25T15:19:34.779Z,101111.13
2022-12-25T15:22:03.835Z,101124.97
2022-12-25T15:24:30.254Z,101115.47
2022-12-25T15:27:00.205Z,101124.97
2022-12-25T15:29:52.150Z,101112.03
2022-12-25T15:32:21.835Z,101113.72
2022-12-25T15:34:49.877Z,101113.81
2022-12-25T15:37:17.333Z,101116.31
2022-12-25T15:39:43.761Z,101119.84
2022-12-25T15:42:16.032Z,101114.63
2022-12-25T15:44:42.910Z,101106.00
2022-12-25T15:47:11.165Z,101101.66
2022-12-25T15:49:38.015Z,101094.69
2022-12-25T15:52:06.345Z,101099.91
2022-12-25T15:54:33.179Z,101093.81
2022-12-25T15:57:05.427Z,101096.41
2022-12-25T15:59:32.391Z,101089.50
2022-12-25T16:02:01.543Z,101085.22
2022-12-25T16:04:31.229Z,101074.00
2022-12-25T16:07:02.481Z,101071.41
2022-12-25T16:09:28.965Z,101068.84
2022-12-25T16:11:55.360Z,101081.94
2022-12-25T16:14:21.842Z,101088.03
2022-12-25T16:16:48.366Z,101086.31
2022-12-25T16:19:14.789Z,101087.13
2022-12-25T16:21:43.505Z,101098.44
2022-12-25T16:24:10.733Z,101090.63
2022-12-25T16:26:37.178Z,101101.88
2022-12-25T16:29:07.577Z,101101.88
2022-12-25T16:31:35.433Z,101093.16
2022-12-25T16:34:02.406Z,101083.69
2022-12-25T16:36:29.011Z,101083.56
2022-12-25T16:38:55.440Z,101078.38
2022-12-25T16:41:21.995Z,101069.72
2022-12-25T16:43:48.704Z,101065.38
2022-12-25T16:46:25.270Z,101058.47
2022-12-25T16:48:51.814Z,101050.69
2022-12-25T16:51:20.890Z,101046.34
2022-12-25T16:53:47.749Z,101057.63
2022-12-25T16:56:21.139Z,101053.34
2022-12-25T16:58:48.319Z,101056.91
2022-12-25T17:01:17.983Z,101066.22
2022-12-25T17:03:45.543Z,101054.16
2022-12-25T17:06:22.555Z,101053.22
2022-12-25T17:08:50.623Z,101058.41
2022-12-25T17:11:19.445Z,101047.19
2022-12-25T17:13:47.601Z,101052.38
2022-12-25T17:16:17.849Z,101053.22
2022-12-25T17:18:47.474Z,101054.16
2022-12-25T17:21:19.318Z,101049.94
2022-12-25T17:23:49.004Z,101049.94
2022-12-25T17:26:15.496Z,101054.28
2022-12-25T17:28:47.378Z,101055.13
2022-12-25T17:31:14.541Z,101059.38
2022-12-25T17:34:11.039Z,101061.16
2022-12-25T17:36:37.506Z,101060.44
2022-12-25T17:39:05.787Z,101048.28
2022-12-25T17:41:32.806Z,101048.38
2022-12-25T17:43:59.285Z,101054.28
2022-12-25T17:46:28.884Z,101059.38
2022-12-25T17:49:01.693Z,101058.56
2022-12-25T17:51:31.847Z,101056.22
2022-12-25T17:56:46.149Z,101064.94
2022-12-25T17:59:18.063Z,101068.28
2022-12-25T18:01:51.321Z,101059.66
2022-12-25T18:04:17.908Z,101060.50
2022-12-25T18:06:49.946Z,101053.56
2022-12-25T18:09:16.331Z,101050.09
2022-12-25T18:11:43.290Z,101035.38
2022-12-25T18:14:16.017Z,101030.25
2022-12-25T18:16:44.751Z,101043.22
2022-12-25T18:19:16.164Z,101041.59
2022-12-25T18:21:45.448Z,101038.13
2022-12-25T18:24:12.061Z,101028.56
2022-12-25T18:26:38.875Z,101025.13
2022-12-25T18:29:08.681Z,101037.19
2022-12-25T18:31:37.926Z,101041.59
2022-12-25T18:34:04.631Z,101047.66
2022-12-25T18:36:34.165Z,101053.69
2022-12-25T18:39:00.694Z,101052.00
2022-12-25T18:41:28.677Z,101046.88
2022-12-25T18:43:56.038Z,101039.94
2022-12-25T18:46:27.351Z,101043.34
2022-12-25T18:48:55.322Z,101057.19
2022-12-25T18:51:21.828Z,101063.41
2022-12-25T18:56:32.403Z,101053.97
2022-12-25T18:58:59.828Z,101047.13
2022-12-25T19:01:26.408Z,101054.88
2022-12-25T19:03:57.311Z,101042.78
2022-12-25T19:06:33.264Z,101044.50
2022-12-25T19:09:07.716Z,101037.59
2022-12-25T19:11:46.515Z,101035.84
2022-12-25T19:14:17.723Z,101039.34
2022-12-25T19:16:44.454Z,101039.28
2022-12-25T19:19:11.419Z,101040.97
2022-12-25T19:21:37.923Z,101028.91
2022-12-25T19:24:04.690Z,101034.09
2022-12-25T19:26:31.101Z,101033.19
2022-12-25T19:28:57.883Z,101034.94
2022-12-25T19:31:24.776Z,101033.22
2022-12-25T19:33:51.313Z,101037.53
2022-12-25T19:36:17.850Z,101035.84
2022-12-25T19:38:44.446Z,101034.03
2022-12-25T19:41:16.144Z,101040.13
2022-12-25T19:43:44.374Z,101048.75
2022-12-25T19:46:16.988Z,101054.88
2022-12-25T19:48:43.788Z,101053.16
2022-12-25T19:51:19.063Z,101053.97
2022-12-25T19:53:46.586Z,101060.00
2022-12-25T19:56:13.207Z,101063.50
2022-12-25T19:58:40.022Z,101067.84
2022-12-25T20:03:54.157Z,101057.47
2022-12-25T20:06:29.357Z,101057.47
2022-12-25T20:08:58.729Z,101056.59
2022-12-25T20:11:46.766Z,101053.97
2022-12-25T20:14:16.142Z,101066.09
2022-12-25T20:16:44.831Z,101063.56
2022-12-25T20:19:13.029Z,101060.06
2022-12-25T20:21:42.665Z,101057.47
2022-12-25T20:24:11.005Z,101062.59
2022-12-25T20:26:38.904Z,101069.53
2022-12-25T20:29:05.605Z,101065.09
2022-12-25T20:31:34.414Z,101065.97
2022-12-25T20:34:08.818Z,101062.50
2022-12-25T20:36:37.496Z,101058.22
2022-12-25T20:39:08.562Z,101056.56
2022-12-25T20:41:35.101Z,101060.81
2022-12-25T20:44:02.020Z,101053.13
2022-12-25T20:46:28.566Z,101058.31
2022-12-25T20:48:55.071Z,101055.72
2022-12-25T20:51:24.283Z,101060.91
2022-12-25T20:53:52.101Z,101072.97
2022-12-25T20:56:20.190Z,101069.53
2022-12-25T20:58:46.867Z,101067.78
2022-12-25T21:01:17.091Z,101061.66
2022-12-25T21:03:44.702Z,101067.66
2022-12-25T21:06:12.254Z,101070.28
2022-12-25T21:08:40.641Z,101072.06
2022-12-25T21:11:08.204Z,101076.28
2022-12-25T21:13:40.362Z,101074.53
2022-12-25T21:16:13.286Z,101072.00
2022-12-25T21:18:39.740Z,101080.63
2022-12-25T21:21:07.571Z,101078.88
2022-12-25T21:23:36.022Z,101090.09
2022-12-25T21:26:31.305Z,101082.25
2022-12-25T21:29:00.379Z,101082.25
2022-12-25T21:31:28.113Z,101078.75
2022-12-25T21:33:55.758Z,101090.06
2022-12-25T21:36:31.448Z,101100.44
2022-12-25T21:39:02.090Z,101116.78
2022-12-25T21:41:30.973Z,101109.91
2022-12-25T21:43:57.898Z,101111.66
2022-12-25T21:46:25.384Z,101121.97
2022-12-25T21:48:51.991Z,101109.81
2022-12-25T21:51:40.230Z,101115.91
2022-12-25T21:54:07.195Z,101115.91
2022-12-25T21:56:43.049Z,101110.63
2022-12-25T21:59:12.548Z,101117.50
2022-12-25T22:01:39.139Z,101111.41
2022-12-25T22:04:10.028Z,101115.75
2022-12-25T22:06:55.682Z,101112.25
2022-12-25T22:09:23.014Z,101120.03
2022-12-25T22:12:08.244Z,101126.00
2022-12-25T22:14:52.657Z,101113.94
2022-12-25T22:17:44.902Z,101126.88
2022-12-25T22:20:17.738Z,101119.91
2022-12-25T22:22:44.555Z,101119.91
2022-12-25T22:25:11.993Z,101123.34
2022-12-25T22:27:40.053Z,101119.91
2022-12-25T22:30:10.131Z,101123.28
2022-12-25T22:32:37.189Z,101132.78
2022-12-25T22:35:04.045Z,101131.84
2022-12-25T22:37:30.520Z,101109.41
2022-12-25T22:39:57.423Z,101110.25
2022-12-25T22:42:24.000Z,101117.19
2022-12-25T22:44:50.533Z,101101.53
2022-12-25T22:47:17.003Z,101090.22
2022-12-25T22:49:43.404Z,101098.00
2022-12-25T22:52:10.118Z,101104.97
2022-12-25T22:54:37.010Z,101085.03
2022-12-25T22:57:03.818Z,101077.19
2022-12-25T22:59:30.279Z,101091.94
2022-12-25T23:01:56.888Z,101091.94
2022-12-25T23:04:23.879Z,101097.97
2022-12-25T23:06:50.481Z,101111.78
2022-12-25T23:09:24.399Z,101105.69
2022-12-25T23:11:51.434Z,101107.44
2022-12-25T23:14:36.487Z,101110.94
2022-12-25T23:17:03.341Z,101105.75
2022-12-25T23:19:48.611Z,101097.03
2022-12-25T23:22:34.020Z,101093.59
2022-12-25T23:25:23.578Z,101085.81
2022-12-25T23:27:49.979Z,101069.31
2022-12-25T23:30:16.806Z,101084.91
2022-12-25T23:32:44.091Z,101085.72
2022-12-25T23:35:11.787Z,101078.81
2022-12-25T23:37:38.325Z,101089.19
2022-12-25T23:40:05.318Z,101108.22
2022-12-25T23:42:31.856Z,101110.81
2022-12-25T23:44:58.343Z,101107.38
2022-12-25T23:47:24.758Z,101110.75
2022-12-25T23:49:51.143Z,101112.50
2022-12-25T23:52:17.545Z,101104.72
2022-12-25T23:54:43.929Z,101104.72
2022-12-25T23:57:10.471Z,101108.97
2022-12-25T23:59:36.891Z,101113.34
